createdAt,value
2023-04-18T00:00:02.116Z,6.92
2023-04-18T00:01:02.486Z,6.92
2023-04-18T00:02:02.563Z,6.92
2023-04-18T00:03:04.500Z,6.90
2023-04-18T00:04:02.807Z,6.91
2023-04-18T00:05:02.973Z,6.88
2023-04-18T00:06:02.648Z,6.87
2023-04-18T00:07:03.047Z,6.83
2023-04-18T00:08:02.682Z,6.75
2023-04-18T00:09:02.757Z,6.68
2023-04-18T00:10:02.496Z,6.61
2023-04-18T00:11:02.900Z,6.60
2023-04-18T00:12:03.283Z,6.60
2023-04-18T00:13:02.907Z,6.58
2023-04-18T00:14:03.301Z,6.57
2023-04-18T00:15:03.331Z,6.56
2023-04-18T00:16:02.873Z,6.55
2023-04-18T00:17:02.521Z,6.56
2023-04-18T00:18:03.003Z,6.57
2023-04-18T00:19:02.378Z,6.57
2023-04-18T00:20:02.378Z,6.56
2023-04-18T00:21:03.005Z,6.55
2023-04-18T00:22:02.624Z,6.53
2023-04-18T00:23:02.832Z,6.49
2023-04-18T00:24:02.788Z,6.47
2023-04-18T00:25:03.135Z,6.46
2023-04-18T00:26:02.740Z,6.45
2023-04-18T00:27:02.772Z,6.44
2023-04-18T00:28:02.770Z,6.42
2023-04-18T00:29:02.237Z,6.42
2023-04-18T00:30:02.546Z,6.40
2023-04-18T00:31:02.865Z,6.40
2023-04-18T00:32:02.563Z,6.39
2023-04-18T00:33:03.046Z,6.37
2023-04-18T00:34:02.688Z,6.31
2023-04-18T00:35:02.992Z,6.27
2023-04-18T00:36:02.415Z,6.27
2023-04-18T00:37:02.311Z,6.24
2023-04-18T00:38:02.009Z,6.24
2023-04-18T00:39:01.896Z,6.22
2023-04-18T00:40:02.238Z,6.20
2023-04-18T00:41:02.197Z,6.18
2023-04-18T00:42:02.075Z,6.13
2023-04-18T00:43:02.431Z,6.11
2023-04-18T00:44:02.291Z,6.11
2023-04-18T00:45:02.113Z,6.11
2023-04-18T00:46:02.254Z,6.10
2023-04-18T00:47:01.969Z,6.10
2023-04-18T00:48:02.365Z,6.08
2023-04-18T00:49:01.999Z,6.08
2023-04-18T00:50:02.303Z,6.06
2023-04-18T00:51:02.334Z,6.05
2023-04-18T00:52:02.106Z,6.03
2023-04-18T00:53:02.446Z,6.00
2023-04-18T00:54:02.058Z,5.95
2023-04-18T00:55:02.700Z,5.92
2023-04-18T00:56:02.067Z,5.90
2023-04-18T00:57:02.793Z,5.89
2023-04-18T00:58:02.659Z,5.83
2023-04-18T00:59:02.990Z,5.79
2023-04-18T01:00:02.477Z,5.76
2023-04-18T01:01:03.020Z,5.73
2023-04-18T01:02:02.625Z,5.71
2023-04-18T01:03:03.458Z,5.70
2023-04-18T01:04:02.764Z,5.66
2023-04-18T01:05:02.939Z,5.65
2023-04-18T01:06:03.000Z,5.65
2023-04-18T01:07:03.239Z,5.66
2023-04-18T01:08:03.186Z,5.66
2023-04-18T01:09:03.278Z,5.65
2023-04-18T01:10:03.726Z,5.61
2023-04-18T01:11:03.190Z,5.60
2023-04-18T01:12:02.645Z,5.48
2023-04-18T01:13:02.955Z,5.45
2023-04-18T01:14:03.179Z,5.43
2023-04-18T01:15:02.956Z,5.43
2023-04-18T01:16:02.563Z,5.40
2023-04-18T01:17:03.041Z,5.40
2023-04-18T01:18:03.390Z,5.39
2023-04-18T01:19:03.028Z,5.39
2023-04-18T01:20:03.418Z,5.40
2023-04-18T01:21:03.297Z,5.38
2023-04-18T01:22:02.998Z,5.32
2023-04-18T01:23:03.271Z,5.27
2023-04-18T01:24:03.131Z,5.22
2023-04-18T01:25:03.522Z,5.17
2023-04-18T01:26:03.321Z,5.16
2023-04-18T01:27:03.008Z,5.14
2023-04-18T01:28:03.118Z,5.10
2023-04-18T01:29:03.483Z,5.07
2023-04-18T01:30:03.579Z,5.06
2023-04-18T01:31:02.957Z,5.08
2023-04-18T01:32:02.415Z,5.09
2023-04-18T01:33:02.916Z,5.10
2023-04-18T01:34:02.601Z,5.13
2023-04-18T01:35:02.347Z,5.16
2023-04-18T01:36:02.955Z,5.16
2023-04-18T01:37:03.185Z,5.17
2023-04-18T01:38:03.636Z,5.17
2023-04-18T01:39:03.012Z,5.15
2023-04-18T01:40:03.043Z,5.13
2023-04-18T01:41:03.424Z,5.10
2023-04-18T01:42:02.744Z,5.07
2023-04-18T01:43:03.135Z,5.06
2023-04-18T01:44:03.171Z,5.04
2023-04-18T01:45:02.825Z,5.02
2023-04-18T01:46:03.028Z,5.01
2023-04-18T01:47:03.261Z,5.01
2023-04-18T01:48:03.184Z,4.97
2023-04-18T01:49:02.900Z,4.96
2023-04-18T01:50:03.210Z,4.95
2023-04-18T01:51:03.251Z,4.94
2023-04-18T01:52:03.009Z,4.90
2023-04-18T01:53:02.621Z,4.86
2023-04-18T01:54:02.575Z,4.81
2023-04-18T01:55:02.997Z,4.77
2023-04-18T01:56:03.056Z,4.79
2023-04-18T01:57:03.344Z,4.76
2023-04-18T01:58:02.898Z,4.72
2023-04-18T01:59:03.453Z,4.70
2023-04-18T02:00:02.903Z,4.65
2023-04-18T02:01:03.476Z,4.62
2023-04-18T02:02:02.557Z,4.59
2023-04-18T02:03:03.129Z,4.59
2023-04-18T02:04:02.575Z,4.57
2023-04-18T02:05:03.016Z,4.54
2023-04-18T02:06:02.366Z,4.51
2023-04-18T02:07:02.747Z,4.47
2023-04-18T02:08:03.059Z,4.45
2023-04-18T02:09:02.645Z,4.43
2023-04-18T02:10:03.127Z,4.40
2023-04-18T02:11:02.561Z,4.37
2023-04-18T02:12:03.253Z,4.35
2023-04-18T02:13:02.734Z,4.32
2023-04-18T02:14:03.051Z,4.27
2023-04-18T02:15:03.299Z,4.24
2023-04-18T02:16:03.389Z,4.21
2023-04-18T02:17:02.613Z,4.18
2023-04-18T02:18:02.341Z,4.18
2023-04-18T02:19:02.301Z,4.17
2023-04-18T02:20:02.661Z,4.17
2023-04-18T02:21:02.311Z,4.18
2023-04-18T02:22:02.601Z,4.18
2023-04-18T02:23:02.634Z,4.20
2023-04-18T02:24:02.706Z,4.24
2023-04-18T02:25:02.339Z,4.25
2023-04-18T02:26:02.737Z,4.24
2023-04-18T02:27:03.132Z,4.23
2023-04-18T02:28:03.329Z,4.26
2023-04-18T02:29:02.761Z,4.29
2023-04-18T02:30:03.199Z,4.30
2023-04-18T02:31:03.115Z,4.30
2023-04-18T02:32:02.684Z,4.29
2023-04-18T02:33:02.289Z,4.32
2023-04-18T02:34:02.171Z,4.30
2023-04-18T02:35:02.479Z,4.30
2023-04-18T02:36:02.711Z,4.28
2023-04-18T02:37:02.541Z,4.26
2023-04-18T02:38:03.025Z,4.25
2023-04-18T02:39:02.384Z,4.21
2023-04-18T02:40:02.730Z,4.21
2023-04-18T02:41:03.006Z,4.17
2023-04-18T02:42:03.071Z,4.12
2023-04-18T02:43:02.813Z,4.14
2023-04-18T02:44:03.171Z,4.16
2023-04-18T02:45:02.834Z,4.14
2023-04-18T02:46:03.130Z,4.12
2023-04-18T02:47:02.682Z,4.06
2023-04-18T02:48:02.739Z,4.05
2023-04-18T02:49:02.500Z,3.98
2023-04-18T02:50:02.211Z,3.96
2023-04-18T02:51:02.531Z,3.94
2023-04-18T02:52:02.825Z,3.95
2023-04-18T02:53:02.911Z,3.90
2023-04-18T02:54:02.366Z,3.88
2023-04-18T02:55:02.345Z,3.85
2023-04-18T02:56:02.715Z,3.87
2023-04-18T02:57:02.986Z,3.88
2023-04-18T02:58:02.606Z,3.88
2023-04-18T02:59:02.949Z,3.92
2023-04-18T03:00:02.851Z,3.90
2023-04-18T03:01:02.630Z,3.91
2023-04-18T03:02:02.434Z,3.91
2023-04-18T03:03:02.693Z,3.92
2023-04-18T03:04:02.562Z,3.94
2023-04-18T03:05:02.438Z,3.91
2023-04-18T03:06:02.269Z,3.89
2023-04-18T03:07:01.777Z,3.86
2023-04-18T03:08:02.174Z,3.82
2023-04-18T03:09:01.978Z,3.79
2023-04-18T03:10:01.933Z,3.76
2023-04-18T03:11:02.201Z,3.70
2023-04-18T03:12:02.499Z,3.64
2023-04-18T03:13:02.130Z,3.62
2023-04-18T03:14:02.183Z,3.58
2023-04-18T03:15:02.494Z,3.58
2023-04-18T03:16:02.064Z,3.56
2023-04-18T03:17:02.239Z,3.53
2023-04-18T03:18:01.862Z,3.51
2023-04-18T03:19:02.097Z,3.49
2023-04-18T03:20:01.560Z,3.47
2023-04-18T03:21:02.192Z,3.46
2023-04-18T03:22:02.534Z,3.44
2023-04-18T03:23:02.278Z,3.43
2023-04-18T03:24:02.401Z,3.42
2023-04-18T03:25:02.163Z,3.39
2023-04-18T03:26:02.497Z,3.35
2023-04-18T03:27:02.484Z,3.34
2023-04-18T03:28:02.450Z,3.35
2023-04-18T03:29:02.731Z,3.36
2023-04-18T03:30:02.784Z,3.38
2023-04-18T03:31:02.883Z,3.38
2023-04-18T03:32:02.456Z,3.37
2023-04-18T03:33:03.011Z,3.38
2023-04-18T03:34:02.354Z,3.36
2023-04-18T03:35:02.778Z,3.34
2023-04-18T03:36:02.481Z,3.31
2023-04-18T03:37:01.934Z,3.26
2023-04-18T03:38:02.274Z,3.26
2023-04-18T03:39:01.949Z,3.24
2023-04-18T03:40:02.369Z,3.24
2023-04-18T03:41:02.057Z,3.21
2023-04-18T03:42:02.796Z,3.20
2023-04-18T03:43:02.501Z,3.20
2023-04-18T03:44:02.562Z,3.24
2023-04-18T03:45:02.926Z,3.29
2023-04-18T03:46:02.595Z,3.30
2023-04-18T03:47:02.053Z,3.31
2023-04-18T03:48:02.542Z,3.33
2023-04-18T03:49:02.043Z,3.35
2023-04-18T03:50:02.383Z,3.38
2023-04-18T03:51:02.644Z,3.40
2023-04-18T03:52:02.314Z,3.37
2023-04-18T03:53:02.000Z,3.41
2023-04-18T03:54:02.378Z,3.39
2023-04-18T03:55:02.507Z,3.39
2023-04-18T03:56:02.198Z,3.35
2023-04-18T03:57:01.500Z,3.32
2023-04-18T03:58:02.025Z,3.30
2023-04-18T03:59:01.577Z,3.26
2023-04-18T04:00:02.048Z,3.23
2023-04-18T04:01:01.893Z,3.19
2023-04-18T04:02:02.793Z,3.14
2023-04-18T04:03:02.509Z,3.11
2023-04-18T04:04:02.838Z,3.09
2023-04-18T04:05:02.471Z,3.06
2023-04-18T04:06:02.679Z,3.03
2023-04-18T04:07:02.817Z,3.00
2023-04-18T04:08:03.073Z,3.00
2023-04-18T04:09:02.781Z,2.97
2023-04-18T04:10:03.155Z,2.96
2023-04-18T04:11:03.082Z,2.97
2023-04-18T04:12:02.583Z,2.93
2023-04-18T04:13:02.493Z,2.94
2023-04-18T04:14:02.324Z,2.91
2023-04-18T04:15:01.934Z,2.88
2023-04-18T04:16:02.148Z,2.81
2023-04-18T04:17:02.508Z,2.77
2023-04-18T04:18:02.333Z,2.74
2023-04-18T04:19:02.837Z,2.75
2023-04-18T04:20:02.606Z,2.76
2023-04-18T04:21:02.360Z,2.76
2023-04-18T04:22:02.867Z,2.79
2023-04-18T04:23:02.707Z,2.81
2023-04-18T04:24:03.190Z,2.81
2023-04-18T04:25:02.674Z,2.81
2023-04-18T04:26:02.735Z,2.82
2023-04-18T04:27:02.082Z,2.84
2023-04-18T04:28:02.506Z,2.84
2023-04-18T04:29:01.952Z,2.84
2023-04-18T04:30:02.438Z,2.85
2023-04-18T04:31:02.492Z,2.87
2023-04-18T04:32:02.229Z,2.86
2023-04-18T04:33:02.508Z,2.85
2023-04-18T04:34:02.172Z,2.83
2023-04-18T04:35:02.602Z,2.85
2023-04-18T04:36:02.388Z,2.85
2023-04-18T04:37:02.376Z,2.85
2023-04-18T04:38:02.123Z,2.86
2023-04-18T04:39:02.286Z,2.85
2023-04-18T04:40:02.415Z,2.83
2023-04-18T04:41:02.056Z,2.85
2023-04-18T04:42:02.015Z,2.86
2023-04-18T04:43:02.155Z,2.88
2023-04-18T04:44:02.248Z,2.91
2023-04-18T04:45:01.830Z,2.95
2023-04-18T04:46:02.132Z,3.00
2023-04-18T04:47:02.666Z,3.05
2023-04-18T04:48:02.754Z,3.09
2023-04-18T04:49:02.402Z,3.11
2023-04-18T04:50:02.923Z,3.15
2023-04-18T04:51:02.658Z,3.17
2023-04-18T04:52:02.969Z,3.20
2023-04-18T04:53:02.847Z,3.22
2023-04-18T04:54:03.074Z,3.25
2023-04-18T04:55:02.666Z,3.26
2023-04-18T04:56:02.446Z,3.30
2023-04-18T04:57:02.535Z,3.34
2023-04-18T04:58:02.423Z,3.37
2023-04-18T04:59:02.523Z,3.39
2023-04-18T05:00:02.657Z,3.40
2023-04-18T05:01:02.839Z,3.41
2023-04-18T05:02:02.279Z,3.41
2023-04-18T05:03:02.835Z,3.40
2023-04-18T05:04:02.431Z,3.40
2023-04-18T05:05:02.670Z,3.39
2023-04-18T05:06:02.214Z,3.39
2023-04-18T05:07:02.669Z,3.36
2023-04-18T05:08:02.836Z,3.39
2023-04-18T05:09:02.610Z,3.36
2023-04-18T05:10:02.494Z,3.36
2023-04-18T05:11:02.952Z,3.37
2023-04-18T05:12:03.163Z,3.39
2023-04-18T05:13:03.350Z,3.41
2023-04-18T05:14:02.967Z,3.44
2023-04-18T05:15:02.817Z,3.43
2023-04-18T05:16:03.089Z,3.44
2023-04-18T05:17:02.100Z,3.43
2023-04-18T05:18:02.384Z,3.44
2023-04-18T05:19:01.958Z,3.46
2023-04-18T05:20:02.645Z,3.48
2023-04-18T05:21:02.131Z,3.53
2023-04-18T05:22:02.776Z,3.53
2023-04-18T05:23:02.838Z,3.56
2023-04-18T05:24:02.482Z,3.56
2023-04-18T05:25:02.450Z,3.57
2023-04-18T05:26:02.728Z,3.58
2023-04-18T05:27:02.274Z,3.59
2023-04-18T05:28:01.959Z,3.61
2023-04-18T05:29:02.158Z,3.60
2023-04-18T05:30:01.900Z,3.61
2023-04-18T05:31:02.421Z,3.62
2023-04-18T05:32:02.054Z,3.63
2023-04-18T05:33:02.285Z,3.64
2023-04-18T05:34:02.102Z,3.65
2023-04-18T05:35:01.910Z,3.67
2023-04-18T05:36:02.383Z,3.68
2023-04-18T05:37:02.587Z,3.70
2023-04-18T05:38:02.301Z,3.73
2023-04-18T05:39:02.244Z,3.73
2023-04-18T05:40:02.477Z,3.75
2023-04-18T05:41:02.625Z,3.76
2023-04-18T05:42:02.630Z,3.78
2023-04-18T05:43:02.690Z,3.81
2023-04-18T05:44:05.636Z,3.82
2023-04-18T05:45:02.957Z,3.86
2023-04-18T05:46:02.790Z,3.92
2023-04-18T05:47:02.502Z,3.96
2023-04-18T05:48:02.103Z,3.99
2023-04-18T05:49:01.927Z,4.07
2023-04-18T05:50:02.346Z,4.13
2023-04-18T05:51:02.149Z,4.20
2023-04-18T05:52:02.378Z,4.27
2023-04-18T05:53:02.386Z,4.33
2023-04-18T05:54:02.204Z,4.40
2023-04-18T05:55:02.526Z,4.48
2023-04-18T05:56:02.632Z,4.55
2023-04-18T05:57:04.278Z,4.59
2023-04-18T05:58:02.331Z,4.65
2023-04-18T05:59:02.460Z,4.72
2023-04-18T06:00:02.803Z,4.77
2023-04-18T06:01:02.731Z,4.83
2023-04-18T06:02:02.562Z,4.91
2023-04-18T06:03:02.745Z,4.95
2023-04-18T06:04:03.172Z,5.01
2023-04-18T06:05:02.829Z,5.08
2023-04-18T06:06:03.172Z,5.16
2023-04-18T06:07:01.935Z,5.26
2023-04-18T06:08:02.421Z,5.31
2023-04-18T06:09:02.160Z,5.41
2023-04-18T06:10:02.315Z,5.50
2023-04-18T06:11:02.377Z,5.58
2023-04-18T06:12:03.020Z,5.68
2023-04-18T06:13:02.912Z,5.77
2023-04-18T06:14:02.425Z,5.85
2023-04-18T06:15:02.560Z,5.94
2023-04-18T06:16:02.923Z,6.05
2023-04-18T06:17:03.071Z,6.14
2023-04-18T06:18:02.725Z,6.23
2023-04-18T06:19:02.421Z,6.34
2023-04-18T06:20:02.965Z,6.44
2023-04-18T06:21:02.490Z,6.53
2023-04-18T06:22:02.193Z,6.64
2023-04-18T06:23:01.807Z,6.73
2023-04-18T06:24:02.452Z,6.81
2023-04-18T06:25:02.069Z,6.90
2023-04-18T06:26:01.924Z,6.99
2023-04-18T06:27:01.851Z,7.06
2023-04-18T06:28:02.466Z,7.13
2023-04-18T06:29:02.409Z,7.21
2023-04-18T06:30:01.912Z,7.28
2023-04-18T06:31:02.330Z,7.38
2023-04-18T06:32:02.189Z,7.46
2023-04-18T06:33:02.006Z,7.53
2023-04-18T06:34:02.401Z,7.62
2023-04-18T06:35:02.352Z,7.67
2023-04-18T06:36:02.089Z,7.75
2023-04-18T06:37:02.034Z,7.78
2023-04-18T06:38:02.087Z,7.81
2023-04-18T06:39:02.009Z,7.84
2023-04-18T06:40:01.922Z,7.88
2023-04-18T06:41:01.614Z,7.86
2023-04-18T06:42:01.997Z,7.86
2023-04-18T06:43:02.426Z,7.85
2023-04-18T06:44:04.169Z,7.90
2023-04-18T06:45:02.509Z,7.85
2023-04-18T06:46:02.465Z,7.89
2023-04-18T06:47:02.138Z,7.87
2023-04-18T06:48:02.469Z,7.90
2023-04-18T06:49:02.560Z,7.92
2023-04-18T06:50:02.035Z,7.95
2023-04-18T06:51:01.936Z,7.93
2023-04-18T06:52:02.146Z,7.97
2023-04-18T06:53:02.376Z,7.95
2023-04-18T06:54:02.141Z,8.02
2023-04-18T06:55:02.617Z,8.06
2023-04-18T06:56:02.261Z,8.10
2023-04-18T06:57:02.342Z,8.14
2023-04-18T06:58:02.098Z,8.10
2023-04-18T06:59:02.565Z,8.14
2023-04-18T07:00:02.629Z,8.20
2023-04-18T07:01:02.286Z,8.26
2023-04-18T07:02:04.034Z,8.34
2023-04-18T07:03:03.956Z,8.40
2023-04-18T07:04:03.696Z,8.41
2023-04-18T07:05:03.930Z,8.44
2023-04-18T07:06:03.508Z,8.50
2023-04-18T07:07:03.683Z,8.55
2023-04-18T07:08:03.497Z,8.60
2023-04-18T07:09:03.881Z,8.56
2023-04-18T07:10:03.914Z,8.64
2023-04-18T07:11:03.570Z,8.70
2023-04-18T07:12:02.757Z,8.76
2023-04-18T07:13:02.795Z,8.78
2023-04-18T07:14:03.205Z,8.77
2023-04-18T07:15:03.189Z,8.72
2023-04-18T07:16:03.059Z,8.76
2023-04-18T07:17:02.921Z,8.77
2023-04-18T07:18:03.299Z,8.82
2023-04-18T07:19:03.406Z,8.88
2023-04-18T07:20:03.098Z,8.92
2023-04-18T07:21:02.907Z,8.99
2023-04-18T07:22:02.519Z,9.07
2023-04-18T07:23:02.939Z,9.09
2023-04-18T07:24:02.562Z,9.18
2023-04-18T07:25:02.880Z,9.25
2023-04-18T07:26:03.062Z,9.32
2023-04-18T07:27:02.585Z,9.35
2023-04-18T07:28:02.873Z,9.42
2023-04-18T07:29:03.113Z,9.43
2023-04-18T07:30:02.679Z,9.49
2023-04-18T07:31:02.522Z,9.54
2023-04-18T07:32:02.868Z,9.61
2023-04-18T07:33:02.916Z,9.68
2023-04-18T07:34:03.012Z,9.69
2023-04-18T07:35:02.791Z,9.77
2023-04-18T07:36:03.298Z,9.81
2023-04-18T07:37:03.104Z,9.83
2023-04-18T07:38:03.176Z,9.83
2023-04-18T07:39:02.931Z,9.87
2023-04-18T07:40:03.492Z,9.95
2023-04-18T07:41:03.071Z,9.99
2023-04-18T07:42:03.637Z,10.02
2023-04-18T07:43:03.294Z,10.09
2023-04-18T07:44:03.681Z,10.13
2023-04-18T07:45:03.271Z,10.20
2023-04-18T07:46:03.232Z,10.29
2023-04-18T07:47:03.896Z,10.37
2023-04-18T07:48:03.313Z,10.44
2023-04-18T07:49:03.266Z,10.51
2023-04-18T07:50:03.834Z,10.53
2023-04-18T07:51:03.475Z,10.55
2023-04-18T07:52:02.818Z,10.58
2023-04-18T07:53:03.076Z,10.66
2023-04-18T07:54:02.665Z,10.76
2023-04-18T07:55:03.204Z,10.86
2023-04-18T07:56:03.026Z,10.96
2023-04-18T07:57:02.939Z,10.91
2023-04-18T07:58:02.980Z,10.92
2023-04-18T07:59:03.358Z,10.91
2023-04-18T08:00:03.317Z,10.86
2023-04-18T08:01:03.096Z,10.86
2023-04-18T08:02:02.679Z,10.83
2023-04-18T08:03:02.687Z,10.83
2023-04-18T08:04:02.717Z,10.82
2023-04-18T08:05:03.082Z,10.76
2023-04-18T08:06:02.596Z,10.71
2023-04-18T08:07:03.000Z,10.70
2023-04-18T08:08:03.125Z,10.64
2023-04-18T08:09:03.344Z,10.53
2023-04-18T08:10:03.305Z,10.50
2023-04-18T08:11:03.132Z,10.47
2023-04-18T08:12:02.605Z,10.49
2023-04-18T08:13:02.470Z,10.54
2023-04-18T08:14:02.876Z,10.56
2023-04-18T08:15:02.715Z,10.57
2023-04-18T08:16:02.529Z,10.59
2023-04-18T08:17:03.255Z,10.56
2023-04-18T08:18:03.150Z,10.56
2023-04-18T08:19:02.997Z,10.53
2023-04-18T08:20:03.502Z,10.56
2023-04-18T08:21:03.355Z,10.57
2023-04-18T08:22:02.730Z,10.60
2023-04-18T08:23:08.642Z,10.62
2023-04-18T08:24:02.586Z,10.61
2023-04-18T08:25:05.397Z,10.62
2023-04-18T08:26:02.386Z,10.61
2023-04-18T08:27:02.870Z,10.64
2023-04-18T08:28:02.749Z,10.69
2023-04-18T08:29:02.698Z,10.69
2023-04-18T08:30:03.162Z,10.68
2023-04-18T08:31:02.667Z,10.69
2023-04-18T08:32:03.557Z,10.77
2023-04-18T08:33:03.311Z,10.75
2023-04-18T08:34:04.964Z,10.73
2023-04-18T08:35:03.557Z,10.72
2023-04-18T08:36:03.177Z,10.71
2023-04-18T08:37:02.987Z,10.72
2023-04-18T08:38:02.561Z,10.77
2023-04-18T08:39:03.100Z,10.77
2023-04-18T08:40:02.718Z,10.85
2023-04-18T08:41:02.787Z,10.85
2023-04-18T08:42:03.322Z,10.85
2023-04-18T08:43:03.010Z,10.87
2023-04-18T08:44:03.526Z,10.94
2023-04-18T08:45:03.158Z,10.98
2023-04-18T08:46:03.220Z,11.02
2023-04-18T08:47:02.781Z,11.05
2023-04-18T08:48:02.807Z,11.04
2023-04-18T08:49:02.696Z,11.04
2023-04-18T08:50:02.644Z,11.05
2023-04-18T08:51:02.461Z,11.05
2023-04-18T08:52:02.519Z,11.04
2023-04-18T08:53:02.342Z,11.03
2023-04-18T08:54:02.666Z,11.05
2023-04-18T08:55:02.189Z,11.10
2023-04-18T08:56:02.608Z,11.13
2023-04-18T08:57:02.931Z,11.19
2023-04-18T08:58:02.831Z,11.18
2023-04-18T08:59:02.981Z,11.24
2023-04-18T09:00:02.533Z,11.31
2023-04-18T09:01:03.167Z,11.31
2023-04-18T09:02:03.150Z,11.29
2023-04-18T09:03:03.198Z,11.25
2023-04-18T09:04:02.894Z,11.26
2023-04-18T09:05:03.271Z,11.23
2023-04-18T09:06:03.152Z,11.20
2023-04-18T09:07:03.684Z,11.19
2023-04-18T09:08:03.796Z,11.16
2023-04-18T09:09:03.279Z,11.17
2023-04-18T09:10:03.659Z,11.16
2023-04-18T09:11:03.221Z,11.16
2023-04-18T09:12:03.595Z,11.17
2023-04-18T09:13:03.910Z,11.10
2023-04-18T09:14:03.465Z,11.16
2023-04-18T09:15:03.892Z,11.20
2023-04-18T09:16:03.910Z,11.24
2023-04-18T09:17:03.315Z,11.27
2023-04-18T09:18:03.204Z,11.33
2023-04-18T09:19:04.170Z,11.39
2023-04-18T09:20:03.066Z,11.42
2023-04-18T09:21:02.783Z,11.41
2023-04-18T09:22:02.953Z,11.44
2023-04-18T09:23:03.313Z,11.48
2023-04-18T09:24:02.966Z,11.55
2023-04-18T09:25:03.449Z,11.63
2023-04-18T09:26:03.136Z,11.66
2023-04-18T09:27:03.601Z,11.74
2023-04-18T09:28:03.440Z,11.84
2023-04-18T09:29:03.165Z,11.93
2023-04-18T09:30:03.033Z,12.01
2023-04-18T09:31:03.473Z,12.12
2023-04-18T09:32:03.203Z,12.21
2023-04-18T09:33:03.250Z,12.31
2023-04-18T09:34:02.714Z,12.45
2023-04-18T09:35:04.333Z,12.53
2023-04-18T09:36:02.668Z,12.59
2023-04-18T09:37:03.844Z,12.70
2023-04-18T09:38:03.421Z,12.80
2023-04-18T09:39:03.225Z,12.92
2023-04-18T09:40:03.808Z,12.98
2023-04-18T09:41:03.457Z,13.06
2023-04-18T09:42:02.492Z,13.14
2023-04-18T09:43:02.883Z,13.23
2023-04-18T09:44:02.729Z,13.25
2023-04-18T09:45:03.127Z,13.29
2023-04-18T09:46:02.669Z,13.32
2023-04-18T09:47:02.509Z,13.34
2023-04-18T09:48:02.967Z,13.42
2023-04-18T09:49:02.912Z,13.50
2023-04-18T09:50:02.983Z,13.54
2023-04-18T09:51:03.111Z,13.55
2023-04-18T09:52:03.357Z,13.63
2023-04-18T09:53:03.109Z,13.64
2023-04-18T09:54:03.055Z,13.65
2023-04-18T09:55:02.839Z,13.63
2023-04-18T09:56:02.956Z,13.67
2023-04-18T09:57:03.162Z,13.59
2023-04-18T09:58:03.807Z,13.56
2023-04-18T09:59:03.762Z,13.47
2023-04-18T10:00:03.309Z,13.51
2023-04-18T10:01:03.479Z,13.57
2023-04-18T10:02:02.819Z,13.65
2023-04-18T10:03:03.051Z,13.65
2023-04-18T10:04:02.874Z,13.70
2023-04-18T10:05:02.976Z,13.72
2023-04-18T10:06:02.790Z,13.79
2023-04-18T10:07:03.557Z,13.87
2023-04-18T10:08:03.391Z,13.92
2023-04-18T10:09:03.273Z,13.92
2023-04-18T10:10:03.341Z,13.88
2023-04-18T10:11:03.639Z,13.75
2023-04-18T10:12:02.863Z,13.70
2023-04-18T10:13:02.587Z,13.67
2023-04-18T10:14:02.658Z,13.62
2023-04-18T10:15:02.733Z,13.64
2023-04-18T10:16:02.722Z,13.58
2023-04-18T10:17:02.731Z,13.59
2023-04-18T10:18:05.840Z,13.67
2023-04-18T10:19:03.285Z,13.71
2023-04-18T10:20:02.997Z,13.70
2023-04-18T10:21:03.094Z,13.73
2023-04-18T10:22:02.919Z,13.73
2023-04-18T10:23:03.304Z,13.75
2023-04-18T10:24:03.518Z,13.74
2023-04-18T10:25:03.225Z,13.72
2023-04-18T10:26:02.946Z,13.75
2023-04-18T10:27:02.620Z,13.81
2023-04-18T10:28:02.652Z,13.88
2023-04-18T10:29:03.125Z,13.94
2023-04-18T10:30:02.430Z,13.96
2023-04-18T10:31:02.700Z,13.91
2023-04-18T10:32:03.076Z,13.96
2023-04-18T10:33:03.157Z,13.99
2023-04-18T10:34:05.583Z,14.05
2023-04-18T10:35:03.139Z,14.08
2023-04-18T10:36:03.251Z,14.03
2023-04-18T10:37:02.315Z,14.09
2023-04-18T10:38:02.264Z,14.09
2023-04-18T10:39:02.484Z,14.13
2023-04-18T10:40:02.679Z,14.14
2023-04-18T10:41:02.632Z,14.13
2023-04-18T10:42:02.806Z,14.17
2023-04-18T10:43:02.844Z,14.19
2023-04-18T10:44:03.197Z,14.13
2023-04-18T10:45:02.808Z,14.13
2023-04-18T10:46:02.709Z,14.06
2023-04-18T10:47:02.556Z,13.97
2023-04-18T10:48:02.326Z,13.83
2023-04-18T10:49:02.912Z,13.85
2023-04-18T10:50:05.932Z,13.86
2023-04-18T10:51:02.695Z,13.79
2023-04-18T10:52:03.089Z,13.73
2023-04-18T10:53:02.897Z,13.72
2023-04-18T10:54:03.234Z,13.71
2023-04-18T10:55:03.134Z,13.73
2023-04-18T10:56:02.944Z,13.70
2023-04-18T10:57:02.633Z,13.68
2023-04-18T10:58:02.738Z,13.67
2023-04-18T10:59:02.944Z,13.64
2023-04-18T11:00:02.771Z,13.66
2023-04-18T11:01:02.948Z,13.66
2023-04-18T11:02:02.634Z,13.69
2023-04-18T11:03:02.944Z,13.70
2023-04-18T11:04:02.977Z,13.69
2023-04-18T11:05:02.452Z,13.67
2023-04-18T11:06:02.849Z,13.62
2023-04-18T11:07:02.004Z,13.62
2023-04-18T11:08:01.726Z,13.66
2023-04-18T11:09:01.931Z,13.66
2023-04-18T11:10:02.022Z,13.70
2023-04-18T11:11:02.133Z,13.72
2023-04-18T11:12:02.396Z,13.76
2023-04-18T11:13:02.373Z,13.79
2023-04-18T11:14:02.451Z,13.87
2023-04-18T11:15:02.204Z,13.94
2023-04-18T11:16:02.270Z,13.99
2023-04-18T11:17:02.565Z,14.07
2023-04-18T11:18:02.615Z,14.13
2023-04-18T11:19:02.701Z,14.24
2023-04-18T11:20:02.520Z,14.32
2023-04-18T11:21:02.603Z,14.37
2023-04-18T11:22:02.519Z,14.40
2023-04-18T11:23:02.380Z,14.38
2023-04-18T11:24:02.415Z,14.39
2023-04-18T11:25:02.509Z,14.38
2023-04-18T11:26:02.427Z,14.37
2023-04-18T11:27:02.162Z,14.39
2023-04-18T11:28:02.332Z,14.33
2023-04-18T11:29:02.080Z,14.26
2023-04-18T11:30:02.271Z,14.23
2023-04-18T11:31:01.978Z,14.30
2023-04-18T11:32:02.580Z,14.25
2023-04-18T11:33:02.722Z,14.20
2023-04-18T11:34:02.588Z,14.11
2023-04-18T11:35:02.381Z,14.07
2023-04-18T11:36:02.441Z,14.09
2023-04-18T11:37:02.248Z,14.06
2023-04-18T11:38:02.322Z,14.10
2023-04-18T11:39:01.958Z,14.19
2023-04-18T11:40:02.362Z,14.29
2023-04-18T11:41:02.076Z,14.40
2023-04-18T11:42:02.751Z,14.54
2023-04-18T11:43:02.790Z,14.66
2023-04-18T11:44:02.689Z,14.77
2023-04-18T11:45:02.526Z,14.90
2023-04-18T11:46:02.444Z,15.07
2023-04-18T11:47:03.011Z,15.25
2023-04-18T11:48:02.534Z,15.46
2023-04-18T11:49:02.828Z,15.60
2023-04-18T11:50:02.955Z,15.77
2023-04-18T11:51:03.145Z,15.90
2023-04-18T11:52:02.264Z,16.01
2023-04-18T11:53:02.285Z,16.13
2023-04-18T11:54:01.815Z,16.11
2023-04-18T11:55:01.858Z,16.09
2023-04-18T11:56:01.868Z,16.06
2023-04-18T11:57:02.339Z,16.07
2023-04-18T11:58:01.884Z,16.12
2023-04-18T11:59:02.219Z,16.23
2023-04-18T12:00:02.579Z,16.37
2023-04-18T12:01:01.961Z,16.49
2023-04-18T12:02:14.421Z,16.55
2023-04-18T12:03:02.455Z,16.54
2023-04-18T12:04:02.987Z,16.57
2023-04-18T12:05:02.677Z,16.56
2023-04-18T12:06:02.446Z,16.62
2023-04-18T12:07:03.039Z,16.59
2023-04-18T12:08:03.079Z,16.57
2023-04-18T12:09:02.840Z,16.53
2023-04-18T12:10:02.960Z,16.57
2023-04-18T12:11:02.870Z,16.61
2023-04-18T12:12:02.644Z,16.62
2023-04-18T12:13:02.445Z,16.66
2023-04-18T12:14:04.031Z,16.75
2023-04-18T12:15:02.300Z,16.81
2023-04-18T12:16:02.547Z,16.75
2023-04-18T12:17:03.114Z,16.69
2023-04-18T12:18:03.200Z,16.68
2023-04-18T12:19:03.044Z,16.64
2023-04-18T12:20:02.612Z,16.60
2023-04-18T12:21:02.721Z,16.52
2023-04-18T12:22:02.164Z,16.44
2023-04-18T12:23:02.232Z,16.44
2023-04-18T12:24:02.335Z,16.44
2023-04-18T12:25:02.550Z,16.45
2023-04-18T12:26:02.785Z,16.43
2023-04-18T12:27:02.390Z,16.44
2023-04-18T12:28:02.465Z,16.41
2023-04-18T12:29:02.884Z,16.37
2023-04-18T12:30:02.987Z,16.41
2023-04-18T12:31:02.817Z,16.45
2023-04-18T12:32:02.771Z,16.40
2023-04-18T12:33:03.138Z,16.37
2023-04-18T12:34:02.566Z,16.27
2023-04-18T12:35:02.599Z,16.32
2023-04-18T12:36:02.733Z,16.33
2023-04-18T12:37:02.748Z,16.23
2023-04-18T12:38:02.461Z,16.27
2023-04-18T12:39:02.064Z,16.30
2023-04-18T12:40:01.966Z,16.42
2023-04-18T12:41:01.959Z,16.53
2023-04-18T12:42:01.967Z,16.62
2023-04-18T12:43:03.872Z,16.76
2023-04-18T12:44:02.546Z,16.86
2023-04-18T12:45:02.538Z,16.95
2023-04-18T12:46:02.830Z,17.09
2023-04-18T12:47:02.771Z,17.15
2023-04-18T12:48:02.388Z,17.26
2023-04-18T12:49:02.274Z,17.27
2023-04-18T12:50:02.443Z,17.27
2023-04-18T12:51:02.127Z,17.25
2023-04-18T12:52:02.114Z,17.22
2023-04-18T12:53:02.746Z,17.13
2023-04-18T12:54:02.641Z,17.08
2023-04-18T12:55:03.138Z,17.08
2023-04-18T12:56:02.738Z,16.95
2023-04-18T12:57:02.742Z,16.92
2023-04-18T12:58:02.540Z,16.81
2023-04-18T12:59:02.438Z,16.74
2023-04-18T13:00:02.520Z,16.68
2023-04-18T13:01:02.751Z,16.67
2023-04-18T13:02:02.595Z,16.76
2023-04-18T13:03:03.199Z,16.88
2023-04-18T13:04:11.597Z,16.91
2023-04-18T13:05:02.577Z,16.94
2023-04-18T13:06:02.701Z,16.92
2023-04-18T13:07:02.785Z,16.94